Startpagina
METAR-TAF:

METAR-TAF

Vliegvelden :

Bukoba, Tanzania

breedte: 01-20S, lengte: 031-49E, hoogte: 1137 m

Actueel weer

Dit bericht is 51 minuten geleden gemaakt, om 18:00 UTC
Weinig wind
Temperatuur 24°C
Vochtigheid 69%
Druk 1015 hPa
Zicht 10 km of meer
geen wolken onder 1500 m en geen cumulonimbus

METAR: HTBU 181800Z 00000KT CAVOK 24/18 Q1015

Tijdstip: 21:51 (18:51 UTC)


TAF: ontbreekt

Waarnemingen en weersverwachtingen van meer dan 4000 vliegvelden (METAR en TAF).

De beschikbare stations zijn de gele en rode punten op de kaart.

Ga met uw muis naar het station om de naam te zien.

Klik dan om waarnemingen en weersverwachtingen te zien.

kaart wijzigen: klik op de groene knoppen met een zwart kruis om in te zoomen, op de groene knop met een streepje om uit te zoomen of op de groene pijlen voor aangrenzende kaarten.


METAR-TAF: